createdAt,value
2017-10-10T00:01:32.661Z,14.00
2017-10-10T00:03:59.216Z,12.67
2017-10-10T00:06:25.475Z,13.10
2017-10-10T00:08:51.723Z,13.63
2017-10-10T00:11:18.014Z,13.10
2017-10-10T00:13:44.254Z,17.90
2017-10-10T00:16:10.484Z,13.53
2017-10-10T00:18:36.737Z,12.90
2017-10-10T00:21:02.979Z,13.93
2017-10-10T00:23:29.954Z,13.10
2017-10-10T00:25:56.223Z,14.17
2017-10-10T00:28:22.456Z,16.53
2017-10-10T00:30:48.682Z,14.57
2017-10-10T00:33:15.239Z,14.20
2017-10-10T00:35:41.475Z,15.27
2017-10-10T00:38:08.442Z,14.63
2017-10-10T00:40:34.742Z,18.10
2017-10-10T00:43:01.002Z,15.50
2017-10-10T00:45:27.259Z,14.83
2017-10-10T00:47:53.573Z,17.70
2017-10-10T00:50:19.837Z,16.73
2017-10-10T00:52:46.840Z,15.93
2017-10-10T00:55:13.158Z,15.93
2017-10-10T00:57:40.177Z,18.60
2017-10-10T01:00:06.434Z,15.27
2017-10-10T01:02:33.534Z,18.10
2017-10-10T01:04:59.790Z,18.43
2017-10-10T01:07:26.021Z,15.93
2017-10-10T01:09:53.058Z,13.27
2017-10-10T01:12:19.286Z,13.07
2017-10-10T01:14:45.569Z,13.87
2017-10-10T01:17:12.089Z,11.40
2017-10-10T01:19:38.313Z,13.87
2017-10-10T01:22:04.590Z,12.70
2017-10-10T01:24:30.895Z,11.73
2017-10-10T01:26:57.153Z,12.97
2017-10-10T01:29:23.421Z,11.63
2017-10-10T01:31:49.724Z,10.90
2017-10-10T01:34:15.985Z,10.67
2017-10-10T01:36:42.262Z,9.97
2017-10-10T01:39:08.555Z,10.17
2017-10-10T01:41:34.783Z,10.13
2017-10-10T01:44:01.034Z,10.60
2017-10-10T01:46:27.304Z,11.40
2017-10-10T01:48:54.296Z,10.60
2017-10-10T01:51:20.550Z,12.27
2017-10-10T01:53:46.854Z,12.07
2017-10-10T01:56:13.122Z,17.60
2017-10-10T01:58:39.366Z,12.17
2017-10-10T02:01:06.399Z,12.97
2017-10-10T02:03:32.685Z,13.50
2017-10-10T02:05:58.944Z,12.27
2017-10-10T02:08:25.251Z,12.57
2017-10-10T02:10:51.523Z,12.70
2017-10-10T02:13:18.492Z,11.17
2017-10-10T02:15:45.553Z,11.47
2017-10-10T02:18:11.774Z,12.03
2017-10-10T02:20:38.029Z,13.70
2017-10-10T02:23:04.297Z,12.20
2017-10-10T02:25:30.562Z,12.50
2017-10-10T02:27:56.791Z,10.93
2017-10-10T02:30:23.371Z,11.60
2017-10-10T02:32:49.598Z,11.80
2017-10-10T02:35:15.848Z,11.40
2017-10-10T02:37:42.149Z,11.13
2017-10-10T02:40:08.407Z,11.17
2017-10-10T02:42:34.654Z,11.50
2017-10-10T02:45:01.695Z,10.30
2017-10-10T02:47:28.687Z,11.37
2017-10-10T02:49:54.960Z,12.13
2017-10-10T02:52:21.418Z,10.80
2017-10-10T02:54:47.688Z,12.93
2017-10-10T02:57:13.930Z,12.33
2017-10-10T02:59:40.341Z,14.07
2017-10-10T03:02:06.566Z,15.80
2017-10-10T03:04:32.789Z,15.53
2017-10-10T03:06:59.118Z,14.57
2017-10-10T03:09:25.346Z,16.77
2017-10-10T03:11:51.579Z,20.30
2017-10-10T03:14:17.834Z,19.90
2017-10-10T03:16:44.077Z,23.20
2017-10-10T03:19:10.309Z,18.13
2017-10-10T03:21:36.586Z,20.80
2017-10-10T03:24:02.822Z,21.50
2017-10-10T03:26:29.044Z,25.57
2017-10-10T03:28:55.309Z,23.30
2017-10-10T03:31:21.540Z,23.77
2017-10-10T03:33:47.766Z,23.90
2017-10-10T03:36:14.127Z,26.00
2017-10-10T03:38:41.206Z,23.80
2017-10-10T03:41:07.438Z,24.70
2017-10-10T03:43:33.794Z,27.20
2017-10-10T03:46:00.023Z,26.47
2017-10-10T03:48:26.254Z,26.87
2017-10-10T03:50:52.609Z,25.93
2017-10-10T03:53:19.573Z,28.87
2017-10-10T03:55:45.799Z,30.30
2017-10-10T03:58:12.816Z,26.93
2017-10-10T04:00:39.040Z,27.23
2017-10-10T04:03:05.267Z,32.80
2017-10-10T04:05:31.619Z,31.43
2017-10-10T04:07:58.613Z,32.53
2017-10-10T04:10:25.980Z,29.07
2017-10-10T04:12:52.426Z,32.57
2017-10-10T04:15:18.670Z,31.67
2017-10-10T04:17:44.924Z,34.10
2017-10-10T04:20:11.520Z,35.10
2017-10-10T04:22:37.774Z,32.50
2017-10-10T04:25:05.318Z,34.97
2017-10-10T04:27:33.088Z,34.17
2017-10-10T04:30:00.101Z,32.20
2017-10-10T04:32:26.501Z,37.40
2017-10-10T04:34:52.798Z,30.97
2017-10-10T04:37:19.094Z,33.37
2017-10-10T04:39:45.394Z,32.60
2017-10-10T04:42:12.068Z,28.70
2017-10-10T04:44:39.102Z,33.43
2017-10-10T04:47:05.359Z,38.43
2017-10-10T04:49:31.649Z,29.77
2017-10-10T04:51:57.904Z,31.50
2017-10-10T04:54:24.197Z,33.03
2017-10-10T04:56:50.667Z,31.03
2017-10-10T04:59:18.100Z,30.50
2017-10-10T05:01:45.184Z,33.77
2017-10-10T05:04:11.501Z,33.27
2017-10-10T05:06:37.788Z,33.60
2017-10-10T05:09:04.119Z,33.03
2017-10-10T05:11:30.566Z,33.67
2017-10-10T05:13:57.108Z,33.57
2017-10-10T05:16:23.362Z,34.30
2017-10-10T05:18:49.784Z,30.83
2017-10-10T05:21:16.296Z,32.70
2017-10-10T05:23:43.385Z,30.97
2017-10-10T05:26:10.046Z,36.10
2017-10-10T05:28:37.093Z,35.57
2017-10-10T05:31:04.133Z,51.73
2017-10-10T05:33:31.305Z,62.13
2017-10-10T05:35:58.145Z,33.90
2017-10-10T05:38:24.456Z,40.67
2017-10-10T05:40:51.660Z,49.43
2017-10-10T05:43:17.963Z,50.57
2017-10-10T05:45:44.231Z,35.00
2017-10-10T05:48:10.527Z,44.20
2017-10-10T05:50:36.766Z,37.20
2017-10-10T05:53:03.010Z,43.77
2017-10-10T05:55:30.199Z,36.40
2017-10-10T05:57:57.225Z,32.87
2017-10-10T06:00:23.494Z,46.10
2017-10-10T06:02:50.117Z,31.03
2017-10-10T06:05:17.108Z,39.60
2017-10-10T06:07:43.406Z,38.93
2017-10-10T06:10:09.760Z,31.77
2017-10-10T06:12:36.003Z,30.17
2017-10-10T06:15:02.360Z,30.60
2017-10-10T06:17:28.712Z,34.00
2017-10-10T06:19:55.743Z,34.20
2017-10-10T06:22:21.985Z,34.80
2017-10-10T06:24:49.312Z,39.57
2017-10-10T06:27:15.577Z,36.03
2017-10-10T06:29:42.615Z,29.57
2017-10-10T06:32:09.686Z,31.67
2017-10-10T06:34:35.967Z,31.03
2017-10-10T06:37:02.495Z,27.83
2017-10-10T06:39:29.891Z,25.47
2017-10-10T06:41:57.226Z,29.77
2017-10-10T06:44:23.548Z,28.47
2017-10-10T06:46:50.485Z,63.63
2017-10-10T06:49:16.777Z,29.43
2017-10-10T06:51:43.159Z,30.00
2017-10-10T06:54:09.730Z,35.27
2017-10-10T06:56:36.008Z,37.17
2017-10-10T06:59:02.294Z,38.93
2017-10-10T07:01:28.607Z,48.20
2017-10-10T07:03:54.907Z,27.20
2017-10-10T07:06:21.217Z,35.00
2017-10-10T07:08:48.616Z,28.37
2017-10-10T07:11:14.887Z,29.80
2017-10-10T07:13:41.165Z,32.63
2017-10-10T07:16:08.512Z,26.87
2017-10-10T07:18:35.160Z,29.37
2017-10-10T07:21:01.457Z,29.00
2017-10-10T07:23:28.161Z,27.83
2017-10-10T07:25:54.496Z,25.27
2017-10-10T07:28:20.758Z,34.63
2017-10-10T07:30:47.116Z,29.63
2017-10-10T07:33:14.137Z,31.90
2017-10-10T07:35:40.418Z,42.00
2017-10-10T07:38:06.815Z,28.97
2017-10-10T07:40:33.837Z,29.37
2017-10-10T07:43:00.106Z,26.73
2017-10-10T07:45:27.379Z,25.90
2017-10-10T07:47:53.816Z,29.67
2017-10-10T07:50:20.077Z,34.17
2017-10-10T07:52:46.583Z,39.40
2017-10-10T07:55:12.882Z,21.90
2017-10-10T07:57:39.896Z,29.07
2017-10-10T08:00:06.533Z,25.53
2017-10-10T08:02:32.937Z,28.30
2017-10-10T08:04:59.211Z,27.57
2017-10-10T08:07:25.606Z,24.37
2017-10-10T08:09:51.884Z,28.23
2017-10-10T08:12:18.887Z,27.87
2017-10-10T08:14:45.577Z,27.83
2017-10-10T08:17:12.581Z,19.80
2017-10-10T08:19:38.836Z,25.70
2017-10-10T08:22:05.298Z,27.07
2017-10-10T08:24:31.597Z,27.13
2017-10-10T08:26:57.979Z,25.87
2017-10-10T08:29:24.295Z,29.03
2017-10-10T08:31:50.584Z,24.30
2017-10-10T08:34:16.823Z,26.00
2017-10-10T08:36:43.888Z,26.43
2017-10-10T08:39:10.901Z,22.73
2017-10-10T08:41:37.166Z,22.20
2017-10-10T08:44:04.212Z,21.00
2017-10-10T08:46:30.473Z,23.00
2017-10-10T08:48:56.766Z,26.23
2017-10-10T08:51:23.441Z,23.30
2017-10-10T08:53:51.452Z,23.27
2017-10-10T08:56:17.972Z,21.97
2017-10-10T08:58:44.426Z,21.50
2017-10-10T09:01:11.429Z,22.80
2017-10-10T09:03:37.815Z,24.70
2017-10-10T09:06:05.504Z,56.57
2017-10-10T09:08:31.890Z,45.70
2017-10-10T09:10:58.446Z,22.30
2017-10-10T09:13:25.526Z,32.23
2017-10-10T09:15:51.966Z,25.80
2017-10-10T09:18:18.469Z,25.47
2017-10-10T09:20:44.854Z,67.40
2017-10-10T09:23:11.152Z,47.23
2017-10-10T09:25:37.708Z,26.90
2017-10-10T09:28:04.350Z,23.80
2017-10-10T09:30:30.620Z,37.63
2017-10-10T09:32:58.148Z,30.37
2017-10-10T09:35:25.035Z,64.43
2017-10-10T09:37:51.350Z,47.03
2017-10-10T09:40:18.353Z,25.83
2017-10-10T09:42:44.668Z,38.03
2017-10-10T09:45:10.928Z,32.40
2017-10-10T09:47:37.213Z,41.03
2017-10-10T09:50:03.600Z,40.80
2017-10-10T09:52:29.866Z,23.67
2017-10-10T09:54:56.133Z,32.90
2017-10-10T09:57:22.691Z,25.10
2017-10-10T09:59:48.941Z,26.67
2017-10-10T10:02:15.947Z,25.50
2017-10-10T10:04:43.069Z,24.70
2017-10-10T10:07:09.373Z,22.17
2017-10-10T10:09:36.418Z,24.43
2017-10-10T10:12:03.734Z,32.13
2017-10-10T10:14:29.994Z,27.40
2017-10-10T10:16:56.992Z,22.50
2017-10-10T10:19:23.287Z,27.40
2017-10-10T10:21:50.299Z,25.60
2017-10-10T10:24:16.580Z,22.97
2017-10-10T10:26:42.899Z,27.40
2017-10-10T10:29:09.459Z,32.50
2017-10-10T10:31:35.719Z,23.03
2017-10-10T10:34:02.154Z,25.57
2017-10-10T10:36:28.436Z,26.00
2017-10-10T10:38:54.746Z,25.90
2017-10-10T10:41:21.060Z,27.53
2017-10-10T10:43:48.062Z,28.53
2017-10-10T10:46:14.336Z,25.10
2017-10-10T10:48:41.463Z,29.43
2017-10-10T10:51:07.713Z,30.17
2017-10-10T10:53:34.711Z,22.23
2017-10-10T10:56:01.006Z,26.27
2017-10-10T10:58:27.276Z,24.33
2017-10-10T11:00:53.548Z,27.57
2017-10-10T11:03:20.871Z,37.43
2017-10-10T11:05:47.110Z,46.80
2017-10-10T11:08:13.375Z,48.77
2017-10-10T11:10:39.702Z,22.60
2017-10-10T11:13:05.978Z,25.87
2017-10-10T11:15:32.252Z,41.20
2017-10-10T11:17:59.355Z,21.60
2017-10-10T11:20:25.596Z,26.00
2017-10-10T11:22:51.912Z,12.80
2017-10-10T11:25:18.230Z,22.47
2017-10-10T11:27:44.511Z,18.50
2017-10-10T11:30:11.509Z,15.83
2017-10-10T11:32:37.806Z,18.90
2017-10-10T11:35:04.125Z,19.37
2017-10-10T11:37:31.123Z,17.50
2017-10-10T11:39:57.437Z,18.23
2017-10-10T11:42:23.698Z,14.63
2017-10-10T11:44:50.002Z,16.40
2017-10-10T11:47:16.335Z,14.43
2017-10-10T11:49:43.014Z,16.43
2017-10-10T11:52:10.052Z,14.17
2017-10-10T11:54:39.080Z,17.80
2017-10-10T11:57:06.680Z,14.83
2017-10-10T11:59:34.471Z,15.63
2017-10-10T12:02:02.043Z,11.33
2017-10-10T12:04:29.154Z,14.43
2017-10-10T12:06:57.446Z,16.00
2017-10-10T12:09:24.272Z,10.80
2017-10-10T12:11:52.492Z,14.70
2017-10-10T12:14:20.375Z,52.80
2017-10-10T12:16:47.694Z,13.40
2017-10-10T12:19:16.083Z,33.87
2017-10-10T12:21:43.918Z,13.73
2017-10-10T12:24:10.307Z,15.77
2017-10-10T12:26:36.580Z,12.50
2017-10-10T12:29:03.391Z,13.57
2017-10-10T12:31:29.680Z,16.87
2017-10-10T12:33:56.739Z,10.17
2017-10-10T12:36:24.084Z,17.20
2017-10-10T12:38:51.589Z,15.63
2017-10-10T12:41:17.862Z,12.67
2017-10-10T12:43:44.895Z,17.90
2017-10-10T12:46:11.759Z,12.93
2017-10-10T12:48:39.303Z,16.00
2017-10-10T12:51:06.148Z,12.73
2017-10-10T12:53:32.468Z,11.40
2017-10-10T12:55:58.888Z,11.53
2017-10-10T12:58:26.209Z,11.73
2017-10-10T13:00:52.787Z,10.20
2017-10-10T13:03:20.313Z,25.47
2017-10-10T13:05:47.797Z,11.37
2017-10-10T13:08:14.071Z,8.87
2017-10-10T13:10:40.351Z,11.40
2017-10-10T13:13:07.328Z,27.40
2017-10-10T13:15:34.384Z,9.70
2017-10-10T13:18:01.408Z,11.17
2017-10-10T13:20:28.070Z,10.77
2017-10-10T13:22:55.748Z,10.27
2017-10-10T13:25:22.008Z,12.50
2017-10-10T13:27:48.342Z,11.20
2017-10-10T13:30:14.804Z,11.47
2017-10-10T13:32:41.619Z,10.70
2017-10-10T13:35:09.013Z,15.97
2017-10-10T13:37:36.468Z,10.50
2017-10-10T13:40:04.037Z,11.93
2017-10-10T13:42:31.767Z,12.00
2017-10-10T13:44:58.107Z,13.53
2017-10-10T13:47:24.724Z,14.50
2017-10-10T13:49:51.094Z,13.10
2017-10-10T13:52:18.124Z,10.20
2017-10-10T13:54:44.404Z,14.40
2017-10-10T13:57:11.095Z,12.57
2017-10-10T13:59:37.379Z,14.53
2017-10-10T14:02:03.651Z,15.80
2017-10-10T14:04:30.366Z,15.07
2017-10-10T14:06:56.635Z,16.23
2017-10-10T14:09:22.931Z,16.97
2017-10-10T14:11:49.227Z,16.90
2017-10-10T14:14:15.562Z,16.80
2017-10-10T14:16:41.887Z,18.40
2017-10-10T14:19:08.673Z,13.20
2017-10-10T14:21:34.980Z,16.23
2017-10-10T14:24:01.494Z,17.17
2017-10-10T14:26:28.247Z,16.87
2017-10-10T14:28:54.540Z,13.77
2017-10-10T14:31:21.550Z,16.33
2017-10-10T14:33:48.080Z,44.27
2017-10-10T14:36:15.102Z,22.47
2017-10-10T14:38:41.354Z,23.23
2017-10-10T14:41:08.611Z,23.70
2017-10-10T14:43:34.871Z,19.73
2017-10-10T14:46:01.879Z,22.10
2017-10-10T14:48:28.272Z,18.27
2017-10-10T14:50:54.550Z,11.97
2017-10-10T14:53:20.802Z,17.30
2017-10-10T14:55:47.831Z,17.17
2017-10-10T14:58:14.292Z,16.43
2017-10-10T15:00:41.286Z,13.33
2017-10-10T15:03:07.695Z,11.23
2017-10-10T15:05:34.413Z,14.90
2017-10-10T15:08:00.650Z,13.60
2017-10-10T15:10:27.268Z,13.80
2017-10-10T15:12:54.614Z,16.00
2017-10-10T15:15:21.610Z,17.90
2017-10-10T15:17:47.933Z,12.97
2017-10-10T15:20:14.182Z,15.17
2017-10-10T15:22:40.435Z,18.90
2017-10-10T15:25:07.298Z,20.10
2017-10-10T15:27:34.297Z,17.43
2017-10-10T15:30:00.569Z,21.30
2017-10-10T15:32:28.186Z,19.17
2017-10-10T15:34:54.609Z,21.70
2017-10-10T15:37:20.892Z,21.70
2017-10-10T15:39:48.172Z,16.10
2017-10-10T15:42:14.514Z,22.07
2017-10-10T15:44:40.787Z,18.70
2017-10-10T15:47:07.627Z,17.20
2017-10-10T15:49:33.972Z,23.30
2017-10-10T15:52:00.296Z,20.80
2017-10-10T15:54:26.896Z,22.00
2017-10-10T15:56:53.951Z,21.70
2017-10-10T15:59:20.368Z,21.40
2017-10-10T16:01:46.665Z,20.80
2017-10-10T16:04:13.606Z,20.97
2017-10-10T16:06:39.967Z,23.80
2017-10-10T16:09:07.107Z,18.53
2017-10-10T16:11:33.459Z,18.20
2017-10-10T16:13:59.742Z,19.70
2017-10-10T16:16:26.900Z,24.30
2017-10-10T16:18:53.363Z,21.77
2017-10-10T16:21:20.077Z,21.27
2017-10-10T16:23:46.731Z,22.87
2017-10-10T16:26:12.983Z,25.17
2017-10-10T16:28:39.270Z,24.03
2017-10-10T16:31:05.810Z,26.00
2017-10-10T16:33:32.445Z,27.43
2017-10-10T16:35:58.780Z,25.47
2017-10-10T16:38:25.468Z,25.83
2017-10-10T16:40:51.761Z,28.00
2017-10-10T16:43:18.066Z,23.20
2017-10-10T16:45:44.369Z,21.23
2017-10-10T16:48:10.632Z,28.30
2017-10-10T16:50:36.912Z,26.80
2017-10-10T16:53:03.579Z,28.57
2017-10-10T16:55:30.595Z,29.03
2017-10-10T16:57:56.859Z,32.37
2017-10-10T17:00:24.189Z,25.50
2017-10-10T17:02:50.726Z,31.17
2017-10-10T17:05:17.009Z,32.20
2017-10-10T17:07:43.476Z,29.20
2017-10-10T17:10:09.771Z,33.60
2017-10-10T17:12:36.218Z,28.83
2017-10-10T17:15:02.542Z,32.93
2017-10-10T17:17:28.889Z,29.97
2017-10-10T17:19:55.169Z,32.40
2017-10-10T17:22:22.112Z,34.10
2017-10-10T17:24:49.153Z,39.57
2017-10-10T17:27:16.176Z,33.03
2017-10-10T17:29:43.206Z,32.87
2017-10-10T17:32:09.466Z,34.03
2017-10-10T17:34:36.502Z,35.00
2017-10-10T17:37:03.433Z,30.37
2017-10-10T17:39:29.823Z,35.87
2017-10-10T17:41:56.163Z,32.60
2017-10-10T17:44:22.829Z,29.57
2017-10-10T17:46:49.894Z,25.03
2017-10-10T17:49:16.225Z,33.07
2017-10-10T17:51:42.557Z,34.97
2017-10-10T17:54:08.827Z,24.33
2017-10-10T17:56:35.140Z,35.57
2017-10-10T17:59:01.818Z,36.00
2017-10-10T18:01:28.911Z,26.63
2017-10-10T18:03:55.949Z,31.90
2017-10-10T18:06:22.835Z,26.80
2017-10-10T18:08:49.108Z,24.20
2017-10-10T18:11:15.367Z,29.67
2017-10-10T18:13:42.523Z,32.50
2017-10-10T18:16:09.520Z,31.80
2017-10-10T18:18:35.849Z,30.00
2017-10-10T18:21:02.427Z,36.33
2017-10-10T18:23:29.440Z,34.43
2017-10-10T18:25:55.736Z,30.17
2017-10-10T18:28:22.452Z,26.63
2017-10-10T18:30:49.455Z,30.07
2017-10-10T18:33:16.016Z,30.87
2017-10-10T18:35:43.402Z,36.27
2017-10-10T18:38:09.745Z,26.67
2017-10-10T18:40:36.126Z,28.50
2017-10-10T18:43:02.872Z,30.23
2017-10-10T18:45:29.215Z,28.20
2017-10-10T18:47:57.122Z,28.60
2017-10-10T18:50:24.536Z,23.70
2017-10-10T18:52:50.867Z,28.77
2017-10-10T18:55:17.863Z,25.80
2017-10-10T18:57:44.495Z,26.90
2017-10-10T19:00:11.070Z,42.13
2017-10-10T19:02:37.366Z,27.00
2017-10-10T19:05:03.753Z,27.17
2017-10-10T19:07:30.747Z,24.00
2017-10-10T19:09:57.386Z,25.13
2017-10-10T19:12:24.191Z,26.70
2017-10-10T19:14:50.525Z,25.70
2017-10-10T19:17:17.541Z,17.17
2017-10-10T19:19:44.696Z,20.10
2017-10-10T19:22:11.697Z,23.20
2017-10-10T19:24:38.395Z,22.67
2017-10-10T19:27:05.822Z,23.87
2017-10-10T19:29:32.557Z,17.17
2017-10-10T19:31:58.928Z,21.63
2017-10-10T19:34:25.620Z,22.30
2017-10-10T19:36:52.690Z,17.63
2017-10-10T19:39:19.742Z,22.87
2017-10-10T19:41:46.969Z,20.80
2017-10-10T19:44:13.294Z,21.50
2017-10-10T19:46:39.792Z,25.07
2017-10-10T19:49:06.162Z,22.83
2017-10-10T19:51:32.492Z,17.00
2017-10-10T19:54:00.508Z,15.87
2017-10-10T19:56:28.060Z,19.23
2017-10-10T19:58:54.879Z,19.50
2017-10-10T20:01:22.296Z,20.40
2017-10-10T20:03:49.506Z,19.90
2017-10-10T20:06:15.843Z,14.33
2017-10-10T20:08:42.828Z,20.03
2017-10-10T20:11:09.116Z,20.20
2017-10-10T20:13:35.415Z,19.53
2017-10-10T20:16:01.694Z,24.13
2017-10-10T20:18:28.148Z,10.70
2017-10-10T20:20:54.413Z,14.93
2017-10-10T20:23:20.666Z,19.07
2017-10-10T20:25:47.709Z,16.00
2017-10-10T20:28:14.712Z,15.67
2017-10-10T20:30:41.717Z,15.30
2017-10-10T20:33:08.032Z,16.13
2017-10-10T20:35:35.027Z,16.40
2017-10-10T20:38:01.294Z,17.50
2017-10-10T20:40:28.352Z,15.37
2017-10-10T20:42:55.383Z,18.10
2017-10-10T20:45:22.397Z,16.87
2017-10-10T20:47:48.695Z,15.10
2017-10-10T20:50:15.008Z,16.10
2017-10-10T20:52:42.001Z,14.80
2017-10-10T20:55:08.749Z,14.10
2017-10-10T20:57:34.994Z,16.10
2017-10-10T21:00:01.270Z,16.07
2017-10-10T21:02:27.854Z,14.33
2017-10-10T21:04:54.167Z,15.37
2017-10-10T21:07:20.436Z,13.90
2017-10-10T21:09:48.067Z,14.40
2017-10-10T21:12:14.331Z,13.60
2017-10-10T21:14:41.353Z,14.60
2017-10-10T21:17:07.651Z,13.77
2017-10-10T21:19:33.911Z,10.47
2017-10-10T21:22:00.196Z,14.07
2017-10-10T21:24:26.496Z,13.83
2017-10-10T21:26:53.512Z,13.60
2017-10-10T21:29:19.788Z,14.87
2017-10-10T21:31:46.232Z,12.37
2017-10-10T21:34:12.511Z,15.73
2017-10-10T21:36:38.787Z,15.37
2017-10-10T21:39:05.087Z,15.20
2017-10-10T21:41:32.469Z,17.00
2017-10-10T21:43:58.727Z,16.43
2017-10-10T21:46:25.035Z,17.33
2017-10-10T21:48:51.279Z,16.60
2017-10-10T21:51:17.522Z,16.83
2017-10-10T21:53:43.841Z,14.17
2017-10-10T21:56:10.115Z,16.20
2017-10-10T21:58:37.120Z,16.43
2017-10-10T22:01:03.425Z,17.57
2017-10-10T22:03:29.677Z,15.80
2017-10-10T22:05:55.942Z,15.67
2017-10-10T22:08:22.976Z,18.37
2017-10-10T22:10:49.233Z,14.97
2017-10-10T22:13:16.239Z,17.60
2017-10-10T22:15:42.531Z,16.17
2017-10-10T22:18:08.789Z,18.50
2017-10-10T22:20:35.059Z,19.17
2017-10-10T22:23:02.381Z,17.43
2017-10-10T22:25:28.657Z,19.77
2017-10-10T22:27:54.919Z,19.73
2017-10-10T22:30:21.673Z,19.10
2017-10-10T22:32:47.928Z,17.90
2017-10-10T22:35:14.944Z,18.10
2017-10-10T22:37:41.587Z,18.37
2017-10-10T22:40:08.587Z,16.83
2017-10-10T22:42:34.896Z,19.77
2017-10-10T22:45:02.032Z,14.33
2017-10-10T22:47:28.286Z,20.13
2017-10-10T22:49:55.283Z,21.63
2017-10-10T22:52:21.592Z,23.57
2017-10-10T22:54:47.859Z,18.90
2017-10-10T22:57:14.141Z,17.63
2017-10-10T22:59:40.450Z,21.43
2017-10-10T23:02:06.771Z,18.10
2017-10-10T23:04:33.785Z,20.60
2017-10-10T23:07:00.350Z,20.90
2017-10-10T23:09:27.405Z,19.73
2017-10-10T23:11:54.419Z,19.33
2017-10-10T23:14:21.016Z,16.43
2017-10-10T23:16:47.434Z,18.70
2017-10-10T23:19:13.658Z,16.57
2017-10-10T23:21:40.233Z,16.97
2017-10-10T23:24:06.462Z,15.10
2017-10-10T23:26:33.567Z,14.77
2017-10-10T23:29:00.841Z,17.87
2017-10-10T23:31:27.071Z,16.57
2017-10-10T23:33:53.295Z,16.77
2017-10-10T23:36:19.543Z,17.50
2017-10-10T23:38:45.754Z,17.93
2017-10-10T23:41:11.971Z,17.73
2017-10-10T23:43:38.241Z,16.07
2017-10-10T23:46:04.470Z,19.03
2017-10-10T23:48:30.687Z,20.60
2017-10-10T23:50:57.028Z,18.93
2017-10-10T23:53:23.287Z,18.90
2017-10-10T23:55:50.254Z,18.83
2017-10-10T23:58:16.730Z,18.57
